PWSweather.com
Personal Weather Stations
Station Observations
WEATHERMOR
MorskoSI

MorskoSI

Lat: 46.075894, Lon: 13.634103

Elevation: 149

Station Type: WS2350

http://vp-morskovreme.com

High Low Average
Temperature 86.4°F30.2°F 65.3°F18.5°F 72.7°F22.6°F
Dew Point 75.0°F23.9°F 43.4°F6.3°F 60.2°F15.7°F
Winds 4.4 mph -7.1 mph - Calm Calm 1.4 mph 2.3 mph
Wind Gusts 39.4 mph63.4 mph 0.9 mph1.4 mph 4.7 mph7.6 mph
Humidity 91% 45% 68%
Pressure 30.11 in1019.60 in 30.00 in1015.90 in -
Precipitation 0.00 in0.00 in - -
Hour Temp Dew Point Humidity Winds Wind Gusts Pressure Precip Precip Rate Daily Precip Total
12:00 AM 67.3°F19.6°C 64.6°F18.1°C 91% 2.3 mph NE3.7 kmh NE 5.4 mph8.7 kmh 30.02 in1016.6 mb 0.00 in0.0 mm 0.00 in0.0 mm 0.00 in0.0 mm
12:10 AM 67.3°F19.6°C 64.6°F18.1°C 91% 2.5 mph NE4.0 kmh NE 6.3 mph10.1 kmh 30.02 in1016.6 mb 0.00 in0.0 mm 0.00 in0.0 mm 0.00 in0.0 mm
12:20 AM 67.3°F19.6°C 64.6°F18.1°C 91% 1.1 mph E1.8 kmh E 2.9 mph4.7 kmh 30.02 in1016.6 mb 0.00 in0.0 mm 0.00 in0.0 mm 0.00 in0.0 mm
12:30 AM 67.1°F19.5°C 64.4°F18.0°C 91% 2.1 mph E3.4 kmh E 3.8 mph6.1 kmh 30.03 in1016.9 mb 0.00 in0.0 mm 0.00 in0.0 mm 0.00 in0.0 mm
12:40 AM 67.1°F19.5°C 64.4°F18.0°C 91% 1.5 mph E2.4 kmh E 4.3 mph6.9 kmh 30.03 in1016.9 mb 0.00 in0.0 mm 0.00 in0.0 mm 0.00 in0.0 mm
12:50 AM 66.9°F19.4°C 64.2°F17.9°C 91% 2.1 mph ENE3.4 kmh ENE 3.8 mph6.1 kmh 30.02 in1016.6 mb 0.00 in0.0 mm 0.00 in0.0 mm 0.00 in0.0 mm
01:00 AM 66.9°F19.4°C 64.2°F17.9°C 91% 1.8 mph ENE2.9 kmh ENE 4.5 mph7.2 kmh 30.03 in1016.9 mb 0.00 in0.0 mm 0.00 in0.0 mm 0.00 in0.0 mm
01:10 AM 66.9°F19.4°C 64.2°F17.9°C 91% 1.7 mph ENE2.7 kmh ENE 4.5 mph7.2 kmh 30.02 in1016.6 mb 0.00 in0.0 mm 0.00 in0.0 mm 0.00 in0.0 mm
01:20 AM 66.9°F19.4°C 64.2°F17.9°C 91% 1.4 mph ENE2.3 kmh ENE 4.9 mph7.9 kmh 30.02 in1016.6 mb 0.00 in0.0 mm 0.00 in0.0 mm 0.00 in0.0 mm
01:30 AM 66.7°F19.3°C 64.0°F17.8°C 91% 1.3 mph NE2.1 kmh NE 4.0 mph6.4 kmh 30.02 in1016.6 mb 0.00 in0.0 mm 0.00 in0.0 mm 0.00 in0.0 mm
01:40 AM 66.7°F19.3°C 64.0°F17.8°C 91% 1.4 mph ENE2.3 kmh ENE 5.4 mph8.7 kmh 30.02 in1016.6 mb 0.00 in0.0 mm 0.00 in0.0 mm 0.00 in0.0 mm
01:50 AM 66.7°F19.3°C 64.0°F17.8°C 91% 1.4 mph NE2.3 kmh NE 3.1 mph5.0 kmh 30.02 in1016.6 mb 0.00 in0.0 mm 0.00 in0.0 mm 0.00 in0.0 mm
02:00 AM 66.6°F19.2°C 63.9°F17.7°C 91% 2.7 mph NE4.3 kmh NE 7.4 mph11.9 kmh 30.01 in1016.3 mb 0.00 in0.0 mm 0.00 in0.0 mm 0.00 in0.0 mm
02:10 AM 66.6°F19.2°C 63.9°F17.7°C 91% 2.7 mph NE4.3 kmh NE 7.4 mph11.9 kmh 30.01 in1016.3 mb 0.00 in0.0 mm 0.00 in0.0 mm 0.00 in0.0 mm
02:20 AM 66.4°F19.1°C 63.7°F17.6°C 91% 2.4 mph NNE3.9 kmh NNE 5.4 mph8.7 kmh 30.01 in1016.3 mb 0.00 in0.0 mm 0.00 in0.0 mm 0.00 in0.0 mm
02:30 AM 66.4°F19.1°C 63.7°F17.6°C 91% 2.2 mph NE3.5 kmh NE 5.4 mph8.7 kmh 30.01 in1016.3 mb 0.00 in0.0 mm 0.00 in0.0 mm 0.00 in0.0 mm
02:40 AM 66.4°F19.1°C 63.7°F17.6°C 91% 2.5 mph NE4.0 kmh NE 6.3 mph10.1 kmh 30.01 in1016.3 mb 0.00 in0.0 mm 0.00 in0.0 mm 0.00 in0.0 mm
02:50 AM 66.4°F19.1°C 63.7°F17.6°C 91% 2.5 mph NE4.0 kmh NE 6.7 mph10.8 kmh 30.00 in1015.9 mb 0.00 in0.0 mm 0.00 in0.0 mm 0.00 in0.0 mm
03:00 AM 66.4°F19.1°C 63.7°F17.6°C 91% 3.1 mph NE5.0 kmh NE 6.3 mph10.1 kmh 30.00 in1015.9 mb 0.00 in0.0 mm 0.00 in0.0 mm 0.00 in0.0 mm
03:10 AM 66.4°F19.1°C 63.7°F17.6°C 91% 3.1 mph NE5.0 kmh NE 6.3 mph10.1 kmh 30.00 in1015.9 mb 0.00 in0.0 mm 0.00 in0.0 mm 0.00 in0.0 mm
03:20 AM 66.2°F19.0°C 63.5°F17.5°C 91% 2.3 mph ENE3.7 kmh ENE 5.8 mph9.3 kmh 30.01 in1016.3 mb 0.00 in0.0 mm 0.00 in0.0 mm 0.00 in0.0 mm
03:30 AM 66.0°F18.9°C 63.3°F17.4°C 91% 2.9 mph NE4.7 kmh NE 7.8 mph12.6 kmh 30.01 in1016.3 mb 0.00 in0.0 mm 0.00 in0.0 mm 0.00 in0.0 mm
03:40 AM 66.0°F18.9°C 63.3°F17.4°C 91% 2.2 mph ENE3.5 kmh ENE 5.1 mph8.2 kmh 30.01 in1016.3 mb 0.00 in0.0 mm 0.00 in0.0 mm 0.00 in0.0 mm
03:50 AM 66.0°F18.9°C 63.3°F17.4°C 91% 2.8 mph NE4.5 kmh NE 8.1 mph13.0 kmh 30.01 in1016.3 mb 0.00 in0.0 mm 0.00 in0.0 mm 0.00 in0.0 mm
04:00 AM 66.0°F18.9°C 63.3°F17.4°C 91% 2.4 mph NNE3.9 kmh NNE 39.4 mph63.4 kmh 30.02 in1016.6 mb 0.00 in0.0 mm 0.00 in0.0 mm 0.00 in0.0 mm
04:10 AM 66.0°F18.9°C 63.3°F17.4°C 91% 2.4 mph NNE3.9 kmh NNE 39.4 mph63.4 kmh 30.02 in1016.6 mb 0.00 in0.0 mm 0.00 in0.0 mm 0.00 in0.0 mm
04:20 AM 66.0°F18.9°C 63.3°F17.4°C 91% 1.9 mph NE3.1 kmh NE 5.8 mph9.3 kmh 30.02 in1016.6 mb 0.00 in0.0 mm 0.00 in0.0 mm 0.00 in0.0 mm
04:30 AM 66.0°F18.9°C 63.3°F17.4°C 91% 2.1 mph NE3.4 kmh NE 5.8 mph9.3 kmh 30.02 in1016.6 mb 0.00 in0.0 mm 0.00 in0.0 mm 0.00 in0.0 mm
04:40 AM 66.0°F18.9°C 63.3°F17.4°C 91% 2.7 mph NE4.3 kmh NE 7.6 mph12.2 kmh 30.02 in1016.6 mb 0.00 in0.0 mm 0.00 in0.0 mm 0.00 in0.0 mm
04:50 AM 66.0°F18.9°C 63.3°F17.4°C 91% 2.2 mph NE3.5 kmh NE 8.5 mph13.7 kmh 30.02 in1016.6 mb 0.00 in0.0 mm 0.00 in0.0 mm 0.00 in0.0 mm
05:00 AM 66.0°F18.9°C 63.3°F17.4°C 91% 3.7 mph NNE6.0 kmh NNE 7.6 mph12.2 kmh 30.01 in1016.3 mb 0.00 in0.0 mm 0.00 in0.0 mm 0.00 in0.0 mm
05:10 AM 66.0°F18.9°C 63.3°F17.4°C 91% 4.0 mph NNE6.4 kmh NNE 8.5 mph13.7 kmh 30.01 in1016.3 mb 0.00 in0.0 mm 0.00 in0.0 mm 0.00 in0.0 mm
05:20 AM 66.0°F18.9°C 63.3°F17.4°C 91% 2.4 mph NNE3.9 kmh NNE 10.5 mph16.9 kmh 30.02 in1016.6 mb 0.00 in0.0 mm 0.00 in0.0 mm 0.00 in0.0 mm
05:30 AM 66.0°F18.9°C 63.3°F17.4°C 91% 2.3 mph NE3.7 kmh NE 6.0 mph9.7 kmh 30.02 in1016.6 mb 0.00 in0.0 mm 0.00 in0.0 mm 0.00 in0.0 mm
05:40 AM 66.0°F18.9°C 63.3°F17.4°C 91% 2.7 mph NE4.3 kmh NE 9.4 mph15.1 kmh 30.02 in1016.6 mb 0.00 in0.0 mm 0.00 in0.0 mm 0.00 in0.0 mm
05:50 AM 66.0°F18.9°C 63.3°F17.4°C 91% 2.7 mph NE4.3 kmh NE 9.2 mph14.8 kmh 30.02 in1016.6 mb 0.00 in0.0 mm 0.00 in0.0 mm 0.00 in0.0 mm
06:00 AM 66.0°F18.9°C 63.3°F17.4°C 91% 2.3 mph ENE3.7 kmh ENE 5.6 mph9.0 kmh 30.02 in1016.6 mb 0.00 in0.0 mm 0.00 in0.0 mm 0.00 in0.0 mm
06:10 AM 66.0°F18.9°C 63.3°F17.4°C 91% 2.7 mph NNE4.3 kmh NNE 8.1 mph13.0 kmh 30.03 in1016.9 mb 0.00 in0.0 mm 0.00 in0.0 mm 0.00 in0.0 mm
06:20 AM 66.0°F18.9°C 63.3°F17.4°C 91% 2.3 mph NE3.7 kmh NE 7.2 mph11.6 kmh 30.03 in1016.9 mb 0.00 in0.0 mm 0.00 in0.0 mm 0.00 in0.0 mm
06:30 AM 66.0°F18.9°C 63.3°F17.4°C 91% 2.0 mph NE3.2 kmh NE 4.7 mph7.6 kmh 30.03 in1016.9 mb 0.00 in0.0 mm 0.00 in0.0 mm 0.00 in0.0 mm
06:40 AM 66.2°F19.0°C 63.5°F17.5°C 91% 2.2 mph NE3.5 kmh NE 8.1 mph13.0 kmh 30.03 in1016.9 mb 0.00 in0.0 mm 0.00 in0.0 mm 0.00 in0.0 mm
06:50 AM 66.4°F19.1°C 63.7°F17.6°C 91% 3.5 mph NNE5.6 kmh NNE 8.9 mph14.3 kmh 30.03 in1016.9 mb 0.00 in0.0 mm 0.00 in0.0 mm 0.00 in0.0 mm
07:00 AM 66.6°F19.2°C 63.9°F17.7°C 91% 2.6 mph NE4.2 kmh NE 5.4 mph8.7 kmh 30.03 in1016.9 mb 0.00 in0.0 mm 0.00 in0.0 mm 0.00 in0.0 mm
07:10 AM 66.7°F19.3°C 64.0°F17.8°C 91% 2.9 mph NE4.7 kmh NE 8.7 mph14.0 kmh 30.03 in1016.9 mb 0.00 in0.0 mm 0.00 in0.0 mm 0.00 in0.0 mm
07:20 AM 66.9°F19.4°C 64.2°F17.9°C 91% 3.8 mph NE6.1 kmh NE 9.6 mph15.4 kmh 30.03 in1016.9 mb 0.00 in0.0 mm 0.00 in0.0 mm 0.00 in0.0 mm
07:30 AM 67.1°F19.5°C 64.4°F18.0°C 91% 2.5 mph NE4.0 kmh NE 7.4 mph11.9 kmh 30.03 in1016.9 mb 0.00 in0.0 mm 0.00 in0.0 mm 0.00 in0.0 mm
07:40 AM 67.6°F19.8°C 64.9°F18.3°C 91% 4.4 mph NNE7.1 kmh NNE 14.1 mph22.7 kmh 30.03 in1016.9 mb 0.00 in0.0 mm 0.00 in0.0 mm 0.00 in0.0 mm
07:50 AM 67.8°F19.9°C 65.1°F18.4°C 91% 3.8 mph NE6.1 kmh NE 9.6 mph15.4 kmh 30.03 in1016.9 mb 0.00 in0.0 mm 0.00 in0.0 mm 0.00 in0.0 mm
08:00 AM 68.2°F20.1°C 65.5°F18.6°C 91% 2.2 mph NE3.5 kmh NE 6.7 mph10.8 kmh 30.04 in1017.3 mb 0.00 in0.0 mm 0.00 in0.0 mm 0.00 in0.0 mm
08:10 AM 68.5°F20.3°C 65.8°F18.8°C 91% 0.7 mph NE1.1 kmh NE 2.5 mph4.0 kmh 30.03 in1016.9 mb 0.00 in0.0 mm 0.00 in0.0 mm 0.00 in0.0 mm
08:20 AM 68.9°F20.5°C 65.8°F18.8°C 90% 1.0 mph ENE1.6 kmh ENE 3.6 mph5.8 kmh 30.03 in1016.9 mb 0.00 in0.0 mm 0.00 in0.0 mm 0.00 in0.0 mm
08:30 AM 69.3°F20.7°C 66.2°F19.0°C 90% 0.2 mph E0.3 kmh E 2.0 mph3.2 kmh 30.03 in1016.9 mb 0.00 in0.0 mm 0.00 in0.0 mm 0.00 in0.0 mm
08:40 AM 69.6°F20.9°C 66.6°F19.2°C 90% 0.6 mph NNE1.0 kmh NNE 3.1 mph5.0 kmh 30.03 in1016.9 mb 0.00 in0.0 mm 0.00 in0.0 mm 0.00 in0.0 mm
08:50 AM 70.3°F21.3°C 67.3°F19.6°C 90% 0.1 mph SE0.2 kmh SE 1.1 mph1.8 kmh 30.03 in1016.9 mb 0.00 in0.0 mm 0.00 in0.0 mm 0.00 in0.0 mm
09:00 AM 71.2°F21.8°C 68.2°F20.1°C 90% Calm Calm 1.1 mph1.8 kmh 30.04 in1017.3 mb 0.00 in0.0 mm 0.00 in0.0 mm 0.00 in0.0 mm
09:10 AM 71.8°F22.1°C 68.7°F20.4°C 90% 0.1 mph SE0.2 kmh SE 1.8 mph2.9 kmh 30.04 in1017.3 mb 0.00 in0.0 mm 0.00 in0.0 mm 0.00 in0.0 mm
09:20 AM 72.5°F22.5°C 69.4°F20.8°C 90% 0.1 mph SE0.2 kmh SE 1.3 mph2.1 kmh 30.04 in1017.3 mb 0.00 in0.0 mm 0.00 in0.0 mm 0.00 in0.0 mm
09:30 AM 73.2°F22.9°C 70.1°F21.2°C 90% Calm Calm 0.9 mph1.4 kmh 30.04 in1017.3 mb 0.00 in0.0 mm 0.00 in0.0 mm 0.00 in0.0 mm
09:40 AM 73.9°F23.3°C 70.5°F21.4°C 89% 0.3 mph SE0.5 kmh SE 1.8 mph2.9 kmh 30.04 in1017.3 mb 0.00 in0.0 mm 0.00 in0.0 mm 0.00 in0.0 mm
09:50 AM 74.8°F23.8°C 71.4°F21.9°C 89% 0.3 mph SE0.5 kmh SE 2.0 mph3.2 kmh 30.04 in1017.3 mb 0.00 in0.0 mm 0.00 in0.0 mm 0.00 in0.0 mm
10:00 AM 75.7°F24.3°C 72.3°F22.4°C 89% 0.4 mph S0.6 kmh S 1.8 mph2.9 kmh 30.04 in1017.3 mb 0.00 in0.0 mm 0.00 in0.0 mm 0.00 in0.0 mm
10:10 AM 76.3°F24.6°C 72.8°F22.7°C 89% 0.2 mph SE0.3 kmh SE 1.6 mph2.6 kmh 30.04 in1017.3 mb 0.00 in0.0 mm 0.00 in0.0 mm 0.00 in0.0 mm
10:20 AM 77.4°F25.2°C 73.5°F23.1°C 88% 0.1 mph SSE0.2 kmh SSE 1.3 mph2.1 kmh 30.04 in1017.3 mb 0.00 in0.0 mm 0.00 in0.0 mm 0.00 in0.0 mm
10:30 AM 78.4°F25.8°C 73.9°F23.3°C 86% 0.4 mph SSE0.6 kmh SSE 2.0 mph3.2 kmh 30.04 in1017.3 mb 0.00 in0.0 mm 0.00 in0.0 mm 0.00 in0.0 mm
10:40 AM 79.3°F26.3°C 73.7°F23.2°C 83% 0.1 mph SE0.2 kmh SE 1.6 mph2.6 kmh 30.04 in1017.3 mb 0.00 in0.0 mm 0.00 in0.0 mm 0.00 in0.0 mm
10:50 AM 79.9°F26.6°C 73.9°F23.3°C 82% 0.5 mph SE0.8 kmh SE 2.0 mph3.2 kmh 30.04 in1017.3 mb 0.00 in0.0 mm 0.00 in0.0 mm 0.00 in0.0 mm
11:00 AM 80.4°F26.9°C 74.8°F23.8°C 83% 0.4 mph SE0.6 kmh SE 2.2 mph3.5 kmh 30.04 in1017.3 mb 0.00 in0.0 mm 0.00 in0.0 mm 0.00 in0.0 mm
11:10 AM 80.6°F27.0°C 75.0°F23.9°C 83% 0.8 mph ESE1.3 kmh ESE 2.2 mph3.5 kmh 30.03 in1016.9 mb 0.00 in0.0 mm 0.00 in0.0 mm 0.00 in0.0 mm
11:20 AM 80.8°F27.1°C 71.3°F21.8°C 73% 0.4 mph NNW0.6 kmh NNW 4.5 mph7.2 kmh 30.03 in1016.9 mb 0.00 in0.0 mm 0.00 in0.0 mm 0.00 in0.0 mm
11:30 AM 81.0°F27.2°C 71.5°F21.9°C 73% 0.3 mph N0.5 kmh N 3.1 mph5.0 kmh 30.03 in1016.9 mb 0.00 in0.0 mm 0.00 in0.0 mm 0.00 in0.0 mm
11:54 AM 80.2°F26.8°C 74.6°F23.7°C 83% 1.6 mph SE2.6 kmh SE 1.6 mph2.6 kmh 30.04 in1017.3 mb 0.00 in0.0 mm 0.00 in0.0 mm 0.00 in0.0 mm
12:00 PM 82.2°F27.9°C 68.8°F20.4°C 64% 1.0 mph W1.6 kmh W 3.8 mph6.1 kmh 30.03 in1016.9 mb 0.00 in0.0 mm 0.00 in0.0 mm 0.00 in0.0 mm
12:10 PM 82.6°F28.1°C 65.8°F18.8°C 57% 1.5 mph N2.4 kmh N 8.1 mph13.0 kmh 30.03 in1016.9 mb 0.00 in0.0 mm 0.00 in0.0 mm 0.00 in0.0 mm
12:20 PM 83.1°F28.4°C 64.8°F18.2°C 54% 1.6 mph N2.6 kmh N 4.5 mph7.2 kmh 30.03 in1016.9 mb 0.00 in0.0 mm 0.00 in0.0 mm 0.00 in0.0 mm
12:30 PM 83.8°F28.8°C 67.5°F19.7°C 58% 1.7 mph W2.7 kmh W 6.0 mph9.7 kmh 30.02 in1016.6 mb 0.00 in0.0 mm 0.00 in0.0 mm 0.00 in0.0 mm
12:40 PM 84.0°F28.9°C 66.1°F18.9°C 55% 1.3 mph WNW2.1 kmh WNW 4.3 mph6.9 kmh 30.02 in1016.6 mb 0.00 in0.0 mm 0.00 in0.0 mm 0.00 in0.0 mm
12:50 PM 84.7°F29.3°C 66.8°F19.3°C 55% 0.9 mph W1.4 kmh W 5.6 mph9.0 kmh 30.02 in1016.6 mb 0.00 in0.0 mm 0.00 in0.0 mm 0.00 in0.0 mm
01:00 PM 84.0°F28.9°C 66.6°F19.2°C 56% 2.6 mph NNE4.2 kmh NNE 8.3 mph13.4 kmh 30.03 in1016.9 mb 0.00 in0.0 mm 0.00 in0.0 mm 0.00 in0.0 mm
01:10 PM 84.0°F28.9°C 66.6°F19.2°C 56% 2.4 mph NE3.9 kmh NE 5.1 mph8.2 kmh 30.03 in1016.9 mb 0.00 in0.0 mm 0.00 in0.0 mm 0.00 in0.0 mm
01:20 PM 83.8°F28.8°C 73.0°F22.8°C 70% 1.0 mph NE1.6 kmh NE 4.5 mph7.2 kmh 30.04 in1017.3 mb 0.00 in0.0 mm 0.00 in0.0 mm 0.00 in0.0 mm
01:30 PM 84.6°F29.2°C 73.7°F23.2°C 70% 0.4 mph NW0.6 kmh NW 2.0 mph3.2 kmh 30.03 in1016.9 mb 0.00 in0.0 mm 0.00 in0.0 mm 0.00 in0.0 mm
01:40 PM 84.9°F29.4°C 64.8°F18.2°C 50% 2.3 mph N3.7 kmh N 7.8 mph12.6 kmh 30.03 in1016.9 mb 0.00 in0.0 mm 0.00 in0.0 mm 0.00 in0.0 mm
01:50 PM 85.6°F29.8°C 66.5°F19.2°C 53% 3.1 mph N5.0 kmh N 7.8 mph12.6 kmh 30.03 in1016.9 mb 0.00 in0.0 mm 0.00 in0.0 mm 0.00 in0.0 mm
02:00 PM 86.4°F30.2°C 62.5°F16.9°C 45% 1.2 mph N1.9 kmh N 6.0 mph9.7 kmh 30.03 in1016.9 mb 0.00 in0.0 mm 0.00 in0.0 mm 0.00 in0.0 mm
02:10 PM 86.0°F30.0°C 62.2°F16.8°C 45% 0.6 mph SE1.0 kmh SE 2.5 mph4.0 kmh 30.03 in1016.9 mb 0.00 in0.0 mm 0.00 in0.0 mm 0.00 in0.0 mm
02:20 PM 84.7°F29.3°C 61.0°F16.1°C 45% 0.8 mph SE1.3 kmh SE 2.5 mph4.0 kmh 30.04 in1017.3 mb 0.00 in0.0 mm 0.00 in0.0 mm 0.00 in0.0 mm
02:30 PM 84.6°F29.2°C 60.9°F16.1°C 45% 3.2 mph SW5.1 kmh SW 7.6 mph12.2 kmh 30.03 in1016.9 mb 0.00 in0.0 mm 0.00 in0.0 mm 0.00 in0.0 mm
02:40 PM 85.6°F29.8°C 61.9°F16.6°C 45% 2.1 mph SW3.4 kmh SW 4.7 mph7.6 kmh 30.03 in1016.9 mb 0.00 in0.0 mm 0.00 in0.0 mm 0.00 in0.0 mm
02:50 PM 85.5°F29.7°C 61.7°F16.5°C 45% 1.7 mph W2.7 kmh W 4.9 mph7.9 kmh 30.03 in1016.9 mb 0.00 in0.0 mm 0.00 in0.0 mm 0.00 in0.0 mm
03:00 PM 84.0°F28.9°C 60.4°F15.8°C 45% 0.9 mph SE1.4 kmh SE 2.7 mph4.3 kmh 30.03 in1016.9 mb 0.00 in0.0 mm 0.00 in0.0 mm 0.00 in0.0 mm
03:10 PM 82.2°F27.9°C 58.8°F14.9°C 45% 0.7 mph ESE1.1 kmh ESE 2.5 mph4.0 kmh 30.03 in1016.9 mb 0.00 in0.0 mm 0.00 in0.0 mm 0.00 in0.0 mm
03:20 PM 81.1°F27.3°C 57.8°F14.3°C 45% 1.2 mph SE1.9 kmh SE 2.5 mph4.0 kmh 30.03 in1016.9 mb 0.00 in0.0 mm 0.00 in0.0 mm 0.00 in0.0 mm
03:30 PM 80.4°F26.9°C 57.1°F13.9°C 45% 1.1 mph E1.8 kmh E 4.5 mph7.2 kmh 30.04 in1017.3 mb 0.00 in0.0 mm 0.00 in0.0 mm 0.00 in0.0 mm
03:40 PM 79.9°F26.6°C 56.6°F13.7°C 45% 1.7 mph SE2.7 kmh SE 3.1 mph5.0 kmh 30.04 in1017.3 mb 0.00 in0.0 mm 0.00 in0.0 mm 0.00 in0.0 mm
03:50 PM 79.2°F26.2°C 56.0°F13.3°C 45% 1.2 mph SE1.9 kmh SE 3.1 mph5.0 kmh 30.04 in1017.3 mb 0.00 in0.0 mm 0.00 in0.0 mm 0.00 in0.0 mm
04:00 PM 78.4°F25.8°C 55.3°F12.9°C 45% 0.9 mph E1.4 kmh E 3.1 mph5.0 kmh 30.04 in1017.3 mb 0.00 in0.0 mm 0.00 in0.0 mm 0.00 in0.0 mm
04:10 PM 77.9°F25.5°C 54.8°F12.7°C 45% 1.1 mph ENE1.8 kmh ENE 4.7 mph7.6 kmh 30.03 in1016.9 mb 0.00 in0.0 mm 0.00 in0.0 mm 0.00 in0.0 mm
04:20 PM 77.7°F25.4°C 54.7°F12.6°C 45% 0.6 mph E1.0 kmh E 2.5 mph4.0 kmh 30.03 in1016.9 mb 0.00 in0.0 mm 0.00 in0.0 mm 0.00 in0.0 mm
04:30 PM 77.4°F25.2°C 54.4°F12.4°C 45% 0.7 mph E1.1 kmh E 2.9 mph4.7 kmh 30.03 in1016.9 mb 0.00 in0.0 mm 0.00 in0.0 mm 0.00 in0.0 mm
04:40 PM 77.2°F25.1°C 54.2°F12.3°C 45% 0.8 mph NE1.3 kmh NE 3.6 mph5.8 kmh 30.03 in1016.9 mb 0.00 in0.0 mm 0.00 in0.0 mm 0.00 in0.0 mm
04:50 PM 77.2°F25.1°C 54.2°F12.3°C 45% 0.2 mph ESE0.3 kmh ESE 2.0 mph3.2 kmh 30.03 in1016.9 mb 0.00 in0.0 mm 0.00 in0.0 mm 0.00 in0.0 mm
05:00 PM 76.8°F24.9°C 53.9°F12.2°C 45% 0.2 mph SSE0.3 kmh SSE 1.8 mph2.9 kmh 30.03 in1016.9 mb 0.00 in0.0 mm 0.00 in0.0 mm 0.00 in0.0 mm
05:10 PM 77.5°F25.3°C 54.5°F12.5°C 45% 0.4 mph S0.6 kmh S 2.0 mph3.2 kmh 30.03 in1016.9 mb 0.00 in0.0 mm 0.00 in0.0 mm 0.00 in0.0 mm
05:20 PM 78.4°F25.8°C 55.3°F12.9°C 45% Calm Calm 0.9 mph1.4 kmh 30.03 in1016.9 mb 0.00 in0.0 mm 0.00 in0.0 mm 0.00 in0.0 mm
05:30 PM 79.5°F26.4°C 56.3°F13.5°C 45% 0.2 mph SSE0.3 kmh SSE 2.0 mph3.2 kmh 30.03 in1016.9 mb 0.00 in0.0 mm 0.00 in0.0 mm 0.00 in0.0 mm
05:40 PM 80.4°F26.9°C 57.1°F13.9°C 45% 0.3 mph SW0.5 kmh SW 1.8 mph2.9 kmh 30.03 in1016.9 mb 0.00 in0.0 mm 0.00 in0.0 mm 0.00 in0.0 mm
05:50 PM 81.1°F27.3°C 57.8°F14.3°C 45% 0.2 mph WSW0.3 kmh WSW 2.0 mph3.2 kmh 30.02 in1016.6 mb 0.00 in0.0 mm 0.00 in0.0 mm 0.00 in0.0 mm
06:00 PM 81.0°F27.2°C 57.6°F14.2°C 45% 0.5 mph W0.8 kmh W 2.0 mph3.2 kmh 30.02 in1016.6 mb 0.00 in0.0 mm 0.00 in0.0 mm 0.00 in0.0 mm
06:10 PM 80.8°F27.1°C 57.5°F14.2°C 45% 1.4 mph NNE2.3 kmh NNE 4.0 mph6.4 kmh 30.03 in1016.9 mb 0.00 in0.0 mm 0.00 in0.0 mm 0.00 in0.0 mm
06:20 PM 80.2°F26.8°C 57.0°F13.9°C 45% 1.2 mph ENE1.9 kmh ENE 3.6 mph5.8 kmh 30.03 in1016.9 mb 0.00 in0.0 mm 0.00 in0.0 mm 0.00 in0.0 mm
06:30 PM 79.5°F26.4°C 56.3°F13.5°C 45% 1.8 mph NE2.9 kmh NE 4.3 mph6.9 kmh 30.03 in1016.9 mb 0.00 in0.0 mm 0.00 in0.0 mm 0.00 in0.0 mm
06:40 PM 78.6°F25.9°C 55.5°F13.1°C 45% 0.5 mph NE0.8 kmh NE 4.3 mph6.9 kmh 30.03 in1016.9 mb 0.00 in0.0 mm 0.00 in0.0 mm 0.00 in0.0 mm
06:50 PM 77.7°F25.4°C 54.7°F12.6°C 45% 0.3 mph SE0.5 kmh SE 1.6 mph2.6 kmh 30.03 in1016.9 mb 0.00 in0.0 mm 0.00 in0.0 mm 0.00 in0.0 mm
07:00 PM 76.8°F24.9°C 53.9°F12.2°C 45% 0.1 mph SE0.2 kmh SE 1.6 mph2.6 kmh 30.04 in1017.3 mb 0.00 in0.0 mm 0.00 in0.0 mm 0.00 in0.0 mm
07:10 PM 75.7°F24.3°C 52.9°F11.6°C 45% 0.6 mph E1.0 kmh E 2.5 mph4.0 kmh 30.04 in1017.3 mb 0.00 in0.0 mm 0.00 in0.0 mm 0.00 in0.0 mm
07:20 PM 74.8°F23.8°C 52.1°F11.2°C 45% 0.9 mph ESE1.4 kmh ESE 2.5 mph4.0 kmh 30.04 in1017.3 mb 0.00 in0.0 mm 0.00 in0.0 mm 0.00 in0.0 mm
07:30 PM 73.8°F23.2°C 51.1°F10.6°C 45% 0.9 mph ESE1.4 kmh ESE 2.7 mph4.3 kmh 30.05 in1017.6 mb 0.00 in0.0 mm 0.00 in0.0 mm 0.00 in0.0 mm
07:40 PM 72.7°F22.6°C 50.1°F10.1°C 45% 0.6 mph ESE1.0 kmh ESE 2.2 mph3.5 kmh 30.06 in1017.9 mb 0.00 in0.0 mm 0.00 in0.0 mm 0.00 in0.0 mm
07:50 PM 72.0°F22.2°C 49.5°F9.7°C 45% 0.8 mph ESE1.3 kmh ESE 2.5 mph4.0 kmh 30.06 in1017.9 mb 0.00 in0.0 mm 0.00 in0.0 mm 0.00 in0.0 mm
08:00 PM 71.2°F21.8°C 48.8°F9.3°C 45% 0.3 mph SE0.5 kmh SE 1.8 mph2.9 kmh 30.06 in1017.9 mb 0.00 in0.0 mm 0.00 in0.0 mm 0.00 in0.0 mm
08:10 PM 70.5°F21.4°C 48.1°F8.9°C 45% 0.6 mph SE1.0 kmh SE 2.5 mph4.0 kmh 30.07 in1018.3 mb 0.00 in0.0 mm 0.00 in0.0 mm 0.00 in0.0 mm
08:20 PM 70.0°F21.1°C 47.7°F8.7°C 45% 0.6 mph E1.0 kmh E 2.9 mph4.7 kmh 30.07 in1018.3 mb 0.00 in0.0 mm 0.00 in0.0 mm 0.00 in0.0 mm
08:30 PM 69.6°F20.9°C 47.3°F8.5°C 45% 0.4 mph E0.6 kmh E 2.0 mph3.2 kmh 30.07 in1018.3 mb 0.00 in0.0 mm 0.00 in0.0 mm 0.00 in0.0 mm
08:40 PM 69.1°F20.6°C 46.8°F8.2°C 45% Calm Calm 1.3 mph2.1 kmh 30.07 in1018.3 mb 0.00 in0.0 mm 0.00 in0.0 mm 0.00 in0.0 mm
08:50 PM 68.7°F20.4°C 46.5°F8.1°C 45% 0.1 mph ESE0.2 kmh ESE 1.3 mph2.1 kmh 30.08 in1018.6 mb 0.00 in0.0 mm 0.00 in0.0 mm 0.00 in0.0 mm
09:00 PM 68.5°F20.3°C 46.3°F7.9°C 45% 0.2 mph ESE0.3 kmh ESE 1.3 mph2.1 kmh 30.08 in1018.6 mb 0.00 in0.0 mm 0.00 in0.0 mm 0.00 in0.0 mm
09:10 PM 67.8°F19.9°C 45.7°F7.6°C 45% 0.3 mph ESE0.5 kmh ESE 1.6 mph2.6 kmh 30.08 in1018.6 mb 0.00 in0.0 mm 0.00 in0.0 mm 0.00 in0.0 mm
09:20 PM 67.6°F19.8°C 45.5°F7.5°C 45% 0.1 mph ENE0.2 kmh ENE 1.3 mph2.1 kmh 30.09 in1019.0 mb 0.00 in0.0 mm 0.00 in0.0 mm 0.00 in0.0 mm
09:30 PM 67.3°F19.6°C 45.2°F7.3°C 45% 0.3 mph E0.5 kmh E 1.8 mph2.9 kmh 30.09 in1019.0 mb 0.00 in0.0 mm 0.00 in0.0 mm 0.00 in0.0 mm
09:40 PM 66.9°F19.4°C 44.9°F7.2°C 45% 0.1 mph E0.2 kmh E 1.3 mph2.1 kmh 30.09 in1019.0 mb 0.00 in0.0 mm 0.00 in0.0 mm 0.00 in0.0 mm
09:50 PM 66.7°F19.3°C 44.7°F7.1°C 45% 0.3 mph E0.5 kmh E 1.8 mph2.9 kmh 30.09 in1019.0 mb 0.00 in0.0 mm 0.00 in0.0 mm 0.00 in0.0 mm
10:00 PM 66.6°F19.2°C 44.5°F6.9°C 45% 0.1 mph SE0.2 kmh SE 1.3 mph2.1 kmh 30.09 in1019.0 mb 0.00 in0.0 mm 0.00 in0.0 mm 0.00 in0.0 mm
10:10 PM 66.4°F19.1°C 44.4°F6.9°C 45% 0.1 mph ENE0.2 kmh ENE 1.3 mph2.1 kmh 30.09 in1019.0 mb 0.00 in0.0 mm 0.00 in0.0 mm 0.00 in0.0 mm
10:20 PM 66.0°F18.9°C 44.1°F6.7°C 45% Calm Calm 0.9 mph1.4 kmh 30.09 in1019.0 mb 0.00 in0.0 mm 0.00 in0.0 mm 0.00 in0.0 mm
10:30 PM 66.0°F18.9°C 44.1°F6.7°C 45% 0.6 mph E1.0 kmh E 2.2 mph3.5 kmh 30.10 in1019.3 mb 0.00 in0.0 mm 0.00 in0.0 mm 0.00 in0.0 mm
10:40 PM 65.8°F18.8°C 43.9°F6.6°C 45% 0.2 mph ESE0.3 kmh ESE 2.2 mph3.5 kmh 30.09 in1019.0 mb 0.00 in0.0 mm 0.00 in0.0 mm 0.00 in0.0 mm
10:50 PM 65.5°F18.6°C 43.6°F6.4°C 45% 0.2 mph NE0.3 kmh NE 1.6 mph2.6 kmh 30.10 in1019.3 mb 0.00 in0.0 mm 0.00 in0.0 mm 0.00 in0.0 mm
11:00 PM 65.5°F18.6°C 43.6°F6.4°C 45% 0.1 mph NNE0.2 kmh NNE 0.9 mph1.4 kmh 30.10 in1019.3 mb 0.00 in0.0 mm 0.00 in0.0 mm 0.00 in0.0 mm
11:10 PM 65.5°F18.6°C 43.6°F6.4°C 45% 0.8 mph NE1.3 kmh NE 2.5 mph4.0 kmh 30.10 in1019.3 mb 0.00 in0.0 mm 0.00 in0.0 mm 0.00 in0.0 mm
11:20 PM 65.3°F18.5°C 43.4°F6.3°C 45% 1.2 mph ENE1.9 kmh ENE 3.6 mph5.8 kmh 30.10 in1019.3 mb 0.00 in0.0 mm 0.00 in0.0 mm 0.00 in0.0 mm
11:30 PM 65.5°F18.6°C 43.6°F6.4°C 45% 2.2 mph ENE3.5 kmh ENE 7.4 mph11.9 kmh 30.11 in1019.6 mb 0.00 in0.0 mm 0.00 in0.0 mm 0.00 in0.0 mm
11:40 PM 65.8°F18.8°C 43.9°F6.6°C 45% 2.4 mph NE3.9 kmh NE 6.0 mph9.7 kmh 30.10 in1019.3 mb 0.00 in0.0 mm 0.00 in0.0 mm 0.00 in0.0 mm
11:50 PM 66.0°F18.9°C 44.1°F6.7°C 45% 2.2 mph NE3.5 kmh NE 6.3 mph10.1 kmh 30.10 in1019.3 mb 0.00 in0.0 mm 0.00 in0.0 mm 0.00 in0.0 mm